createdAt,value
2023-07-16T00:01:24.162Z,2.35
2023-07-16T00:03:51.671Z,2.03
2023-07-16T00:06:19.180Z,2.50
2023-07-16T00:08:46.513Z,2.03
2023-07-16T00:11:13.831Z,2.08
2023-07-16T00:13:47.059Z,1.83
2023-07-16T00:16:15.508Z,1.90
2023-07-16T00:18:45.182Z,2.10
2023-07-16T00:21:12.494Z,1.90
2023-07-16T00:23:39.839Z,2.05
2023-07-16T00:26:07.151Z,2.25
2023-07-16T00:28:34.628Z,1.70
2023-07-16T00:31:02.561Z,1.73
2023-07-16T00:33:29.949Z,1.83
2023-07-16T00:36:09.479Z,1.90
2023-07-16T00:38:36.756Z,2.00
2023-07-16T00:41:04.074Z,1.83
2023-07-16T00:43:31.366Z,1.98
2023-07-16T00:45:59.185Z,1.83
2023-07-16T00:48:27.045Z,1.90
2023-07-16T00:50:55.032Z,1.98
2023-07-16T00:53:22.964Z,2.10
2023-07-16T00:55:50.297Z,1.90
2023-07-16T00:58:17.602Z,1.90
2023-07-16T01:00:45.116Z,1.55
2023-07-16T01:03:14.464Z,2.13
2023-07-16T01:06:11.306Z,1.85
2023-07-16T01:08:56.061Z,2.30
2023-07-16T01:11:24.478Z,1.80
2023-07-16T01:13:52.944Z,2.08
2023-07-16T01:18:52.336Z,1.80
2023-07-16T01:21:22.033Z,2.25
2023-07-16T01:24:10.055Z,1.80
2023-07-16T01:26:46.404Z,2.20
2023-07-16T01:29:16.606Z,2.00
2023-07-16T01:31:44.889Z,1.73
2023-07-16T01:34:34.618Z,1.83
2023-07-16T01:37:08.686Z,1.80
2023-07-16T01:39:36.385Z,1.70
2023-07-16T01:42:04.040Z,2.42
2023-07-16T01:44:31.405Z,2.85
2023-07-16T01:47:28.432Z,2.00
2023-07-16T01:49:56.838Z,1.77
2023-07-16T01:52:24.122Z,2.05
2023-07-16T01:54:51.533Z,2.25
2023-07-16T01:57:22.440Z,2.20
2023-07-16T01:59:49.736Z,2.30
2023-07-16T02:02:17.095Z,2.13
2023-07-16T02:04:45.780Z,2.20
2023-07-16T02:07:13.083Z,2.40
2023-07-16T02:09:41.578Z,1.85
2023-07-16T02:14:36.043Z,2.10
2023-07-16T02:17:03.709Z,2.05
2023-07-16T02:19:31.066Z,2.15
2023-07-16T02:21:58.430Z,2.20
2023-07-16T02:24:25.798Z,2.47
2023-07-16T02:26:53.086Z,2.05
2023-07-16T02:29:20.456Z,2.15
2023-07-16T02:31:49.715Z,2.28
2023-07-16T02:34:17.226Z,2.42
2023-07-16T02:36:44.529Z,2.33
2023-07-16T02:39:11.871Z,2.00
2023-07-16T02:41:39.196Z,1.85
2023-07-16T02:44:07.176Z,1.90
2023-07-16T02:46:35.107Z,2.08
2023-07-16T02:49:04.483Z,1.75
2023-07-16T02:51:31.773Z,1.92
2023-07-16T02:53:59.040Z,1.70
2023-07-16T02:56:26.371Z,1.73
2023-07-16T02:58:53.998Z,2.17
2023-07-16T03:01:22.372Z,1.90
2023-07-16T03:03:49.806Z,1.52
2023-07-16T03:06:20.254Z,2.08
2023-07-16T03:08:51.726Z,1.58
2023-07-16T03:11:19.929Z,1.75
2023-07-16T03:13:47.343Z,1.75
2023-07-16T03:16:15.285Z,1.70
2023-07-16T03:18:46.533Z,2.00
2023-07-16T03:21:14.139Z,2.00
2023-07-16T03:23:41.558Z,2.03
2023-07-16T03:26:09.696Z,1.80
2023-07-16T03:28:37.042Z,1.88
2023-07-16T03:31:07.110Z,1.50
2023-07-16T03:33:36.864Z,1.90
2023-07-16T03:36:05.453Z,1.88
2023-07-16T03:38:32.835Z,1.77
2023-07-16T03:41:00.229Z,1.70
2023-07-16T03:43:28.860Z,1.65
2023-07-16T03:48:31.164Z,1.58
2023-07-16T03:50:58.723Z,1.70
2023-07-16T03:53:26.178Z,1.60
2023-07-16T03:55:53.499Z,2.00
2023-07-16T03:58:25.024Z,1.70
2023-07-16T04:00:53.320Z,1.65
2023-07-16T04:03:23.428Z,1.90
2023-07-16T04:05:51.122Z,1.90
2023-07-16T04:08:18.765Z,2.17
2023-07-16T04:10:46.147Z,1.90
2023-07-16T04:13:13.617Z,2.05
2023-07-16T04:15:40.956Z,2.30
2023-07-16T04:18:08.360Z,2.00
2023-07-16T04:20:35.734Z,1.83
2023-07-16T04:23:03.162Z,1.90
2023-07-16T04:25:30.597Z,1.80
2023-07-16T04:27:57.981Z,1.98
2023-07-16T04:30:25.323Z,2.15
2023-07-16T04:32:52.629Z,1.70
2023-07-16T04:35:19.974Z,1.70
2023-07-16T04:37:47.383Z,1.98
2023-07-16T04:40:14.881Z,1.63
2023-07-16T04:42:42.181Z,1.60
2023-07-16T04:45:09.727Z,1.77
2023-07-16T04:47:37.024Z,1.77
2023-07-16T04:50:04.605Z,1.60
2023-07-16T04:52:31.892Z,1.98
2023-07-16T04:55:02.485Z,1.50
2023-07-16T04:57:29.751Z,1.90
2023-07-16T04:59:57.069Z,1.63
2023-07-16T05:02:24.371Z,1.35
2023-07-16T05:04:51.705Z,1.75
2023-07-16T05:07:23.016Z,1.63
2023-07-16T05:09:50.316Z,1.65
2023-07-16T05:12:17.579Z,1.48
2023-07-16T05:14:49.524Z,1.38
2023-07-16T05:17:17.056Z,1.77
2023-07-16T05:19:45.218Z,1.85
2023-07-16T05:22:12.572Z,1.13
2023-07-16T05:24:39.898Z,1.85
2023-07-16T05:27:08.193Z,1.80
2023-07-16T05:29:35.522Z,1.90
2023-07-16T05:32:03.632Z,1.85
2023-07-16T05:34:31.241Z,1.55
2023-07-16T05:36:58.576Z,1.90
2023-07-16T05:39:26.012Z,1.50
2023-07-16T05:41:53.381Z,1.60
2023-07-16T05:44:21.283Z,1.50
2023-07-16T05:46:48.655Z,1.52
2023-07-16T05:49:16.059Z,1.52
2023-07-16T05:51:44.031Z,1.20
2023-07-16T05:54:11.352Z,1.45
2023-07-16T05:56:38.772Z,1.30
2023-07-16T05:59:06.070Z,1.23
2023-07-16T06:01:33.582Z,1.40
2023-07-16T06:04:01.013Z,1.10
2023-07-16T06:06:29.533Z,1.30
2023-07-16T06:08:56.917Z,0.95
2023-07-16T06:11:24.363Z,1.30
2023-07-16T06:13:55.510Z,1.17
2023-07-16T06:16:23.198Z,1.23
2023-07-16T06:18:50.626Z,1.50
2023-07-16T06:21:18.238Z,1.55
2023-07-16T06:23:45.546Z,1.50
2023-07-16T06:26:12.908Z,1.15
2023-07-16T06:28:40.295Z,1.20
2023-07-16T06:31:08.065Z,1.35
2023-07-16T06:33:35.532Z,1.20
2023-07-16T06:36:02.904Z,1.13
2023-07-16T06:38:31.096Z,1.48
2023-07-16T06:40:58.403Z,1.23
2023-07-16T06:43:25.846Z,0.95
2023-07-16T06:45:53.162Z,1.00
2023-07-16T06:48:20.518Z,1.00
2023-07-16T06:50:47.884Z,1.05
2023-07-16T06:53:15.388Z,1.10
2023-07-16T06:55:42.728Z,1.20
2023-07-16T06:58:15.613Z,1.15
2023-07-16T07:00:42.970Z,0.90
2023-07-16T07:03:10.433Z,1.40
2023-07-16T07:05:41.310Z,1.20
2023-07-16T07:08:09.165Z,1.10
2023-07-16T07:10:39.083Z,1.23
2023-07-16T07:13:06.463Z,1.20
2023-07-16T07:15:33.759Z,1.17
2023-07-16T07:18:01.131Z,1.17
2023-07-16T07:20:28.497Z,1.20
2023-07-16T07:22:55.918Z,1.23
2023-07-16T07:25:23.483Z,1.38
2023-07-16T07:27:50.796Z,1.13
2023-07-16T07:30:18.093Z,1.33
2023-07-16T07:32:45.904Z,1.40
2023-07-16T07:35:13.368Z,1.20
2023-07-16T07:37:40.700Z,1.30
2023-07-16T07:40:08.890Z,1.15
2023-07-16T07:42:36.207Z,1.10
2023-07-16T07:45:03.879Z,1.17
2023-07-16T07:47:31.213Z,1.20
2023-07-16T07:49:58.582Z,0.98
2023-07-16T07:52:27.883Z,0.90
2023-07-16T07:54:55.235Z,0.88
2023-07-16T07:57:23.566Z,1.48
2023-07-16T08:02:22.285Z,0.95
2023-07-16T08:04:49.690Z,1.17
2023-07-16T08:07:17.189Z,0.70
2023-07-16T08:09:44.532Z,1.00
2023-07-16T08:12:13.046Z,0.90
2023-07-16T08:14:42.804Z,0.85
2023-07-16T08:17:10.152Z,0.80
2023-07-16T08:19:39.022Z,1.20
2023-07-16T08:22:06.459Z,0.90
2023-07-16T08:24:33.869Z,0.90
2023-07-16T08:27:01.187Z,0.75
2023-07-16T08:29:28.572Z,0.98
2023-07-16T08:31:55.969Z,0.63
2023-07-16T08:34:23.270Z,0.93
2023-07-16T08:36:50.657Z,0.80
2023-07-16T08:39:21.222Z,0.95
2023-07-16T08:41:49.627Z,0.70
2023-07-16T08:44:17.350Z,0.77
2023-07-16T08:46:44.888Z,0.60
2023-07-16T08:49:13.241Z,0.80
2023-07-16T08:51:41.962Z,0.43
2023-07-16T08:54:09.640Z,0.90
2023-07-16T08:56:37.237Z,0.90
2023-07-16T08:59:05.381Z,0.52
2023-07-16T09:01:32.794Z,0.80
2023-07-16T09:04:00.199Z,0.70
2023-07-16T09:06:28.586Z,0.70
2023-07-16T09:08:56.537Z,0.95
2023-07-16T09:11:23.853Z,0.77
2023-07-16T09:13:51.460Z,0.95
2023-07-16T09:16:22.134Z,0.90
2023-07-16T09:18:49.568Z,1.00
2023-07-16T09:21:16.937Z,0.70
2023-07-16T09:23:44.262Z,1.00
2023-07-16T09:26:11.694Z,1.13
2023-07-16T09:28:39.019Z,0.88
2023-07-16T09:31:07.692Z,0.90
2023-07-16T09:33:35.603Z,0.70
2023-07-16T09:36:04.485Z,0.80
2023-07-16T09:38:34.191Z,1.08
2023-07-16T09:41:05.345Z,0.80
2023-07-16T09:43:36.120Z,0.98
2023-07-16T09:46:03.837Z,0.95
2023-07-16T09:48:31.200Z,0.90
2023-07-16T09:50:58.656Z,0.95
2023-07-16T09:53:29.014Z,0.80
2023-07-16T09:55:57.096Z,0.90
2023-07-16T09:58:25.615Z,1.00
2023-07-16T10:00:53.598Z,0.95
2023-07-16T10:03:21.101Z,0.90
2023-07-16T10:05:48.923Z,1.17
2023-07-16T10:08:18.781Z,0.80
2023-07-16T10:10:54.801Z,0.77
2023-07-16T10:13:24.550Z,0.70
2023-07-16T10:16:01.903Z,0.90
2023-07-16T10:18:32.111Z,1.00
2023-07-16T10:21:09.309Z,0.75
2023-07-16T10:23:45.104Z,1.20
2023-07-16T10:26:19.734Z,0.93
2023-07-16T10:28:55.179Z,0.75
2023-07-16T10:31:24.746Z,1.00
2023-07-16T10:34:09.184Z,0.90
2023-07-16T10:36:40.306Z,1.02
2023-07-16T10:39:08.016Z,1.17
2023-07-16T10:41:35.475Z,1.13
2023-07-16T10:44:03.462Z,0.82
2023-07-16T10:46:33.176Z,0.80
2023-07-16T10:49:00.818Z,0.80
2023-07-16T10:51:28.508Z,0.80
2023-07-16T10:53:58.925Z,0.85
2023-07-16T10:56:26.828Z,0.80
2023-07-16T10:58:54.372Z,0.85
2023-07-16T11:01:22.047Z,0.90
2023-07-16T11:03:49.815Z,0.90
2023-07-16T11:06:20.414Z,1.25
2023-07-16T11:08:48.689Z,0.90
2023-07-16T11:11:15.999Z,0.73
2023-07-16T11:13:46.076Z,0.75
2023-07-16T11:16:17.675Z,0.60
2023-07-16T11:18:45.574Z,0.80
2023-07-16T11:21:12.997Z,0.80
2023-07-16T11:23:40.397Z,0.90
2023-07-16T11:26:07.679Z,0.98
2023-07-16T11:28:43.240Z,1.20
2023-07-16T11:31:18.218Z,1.00
2023-07-16T11:33:46.563Z,0.85
2023-07-16T11:36:14.669Z,1.35
2023-07-16T11:38:42.450Z,0.90
2023-07-16T11:41:10.270Z,1.00
2023-07-16T11:43:40.899Z,1.17
2023-07-16T11:46:18.667Z,0.65
2023-07-16T11:48:46.450Z,0.95
2023-07-16T11:51:13.822Z,0.73
2023-07-16T11:53:41.201Z,1.20
2023-07-16T11:56:08.720Z,1.00
2023-07-16T11:58:36.036Z,1.10
2023-07-16T12:01:03.894Z,0.93
2023-07-16T12:03:31.528Z,0.80
2023-07-16T12:05:58.906Z,0.70
2023-07-16T12:08:26.255Z,1.08
2023-07-16T12:10:53.928Z,0.93
2023-07-16T12:13:21.203Z,0.98
2023-07-16T12:15:48.508Z,0.98
2023-07-16T12:18:15.850Z,1.00
2023-07-16T12:20:43.275Z,0.88
2023-07-16T12:23:10.724Z,1.20
2023-07-16T12:25:38.205Z,1.10
2023-07-16T12:28:05.720Z,1.10
2023-07-16T12:30:33.029Z,1.10
2023-07-16T12:33:00.406Z,1.00
2023-07-16T12:35:27.734Z,1.10
2023-07-16T12:37:55.035Z,1.00
2023-07-16T12:40:22.429Z,1.10
2023-07-16T12:42:49.744Z,1.10
2023-07-16T12:45:17.112Z,1.00
2023-07-16T12:47:44.601Z,1.10
2023-07-16T12:50:11.919Z,0.80
2023-07-16T12:52:39.284Z,0.73
2023-07-16T12:55:06.907Z,1.13
2023-07-16T12:57:34.234Z,1.10
2023-07-16T13:00:02.919Z,0.85
2023-07-16T13:02:30.305Z,1.10
2023-07-16T13:04:57.765Z,0.80
2023-07-16T13:07:25.563Z,1.05
2023-07-16T13:10:04.411Z,1.10
2023-07-16T13:12:39.976Z,0.90
2023-07-16T13:15:08.097Z,0.88
2023-07-16T13:17:35.465Z,1.05
2023-07-16T13:20:04.296Z,1.15
2023-07-16T13:22:31.871Z,1.10
2023-07-16T13:24:59.607Z,1.08
2023-07-16T13:27:26.936Z,0.82
2023-07-16T13:29:54.241Z,0.98
2023-07-16T13:32:21.608Z,1.13
2023-07-16T13:34:49.004Z,1.13
2023-07-16T13:37:16.650Z,1.05
2023-07-16T13:39:44.218Z,1.40
2023-07-16T13:42:21.900Z,1.30
2023-07-16T13:44:50.814Z,0.98
2023-07-16T13:47:18.180Z,1.13
2023-07-16T13:49:45.542Z,0.85
2023-07-16T13:52:12.841Z,1.23
2023-07-16T13:54:41.853Z,1.10
2023-07-16T13:57:10.234Z,1.25
2023-07-16T14:02:05.841Z,1.20
2023-07-16T14:04:33.628Z,1.20
2023-07-16T14:07:01.335Z,1.33
2023-07-16T14:09:28.832Z,1.10
2023-07-16T14:11:56.127Z,1.05
2023-07-16T14:14:23.980Z,1.48
2023-07-16T14:16:51.432Z,1.10
2023-07-16T14:19:18.814Z,1.30
2023-07-16T14:21:46.164Z,1.00
2023-07-16T14:24:13.592Z,1.25
2023-07-16T14:26:41.351Z,1.02
2023-07-16T14:29:09.034Z,1.25
2023-07-16T14:31:36.476Z,1.20
2023-07-16T14:34:03.802Z,1.45
2023-07-16T14:36:31.130Z,1.17
2023-07-16T14:38:58.853Z,1.23
2023-07-16T14:41:26.164Z,1.10
2023-07-16T14:43:55.233Z,1.23
2023-07-16T14:46:24.821Z,1.30
2023-07-16T14:48:56.238Z,1.42
2023-07-16T14:51:23.747Z,1.35
2023-07-16T14:53:53.466Z,1.45
2023-07-16T14:56:21.058Z,1.30
2023-07-16T14:58:48.403Z,1.50
2023-07-16T15:01:15.797Z,1.63
2023-07-16T15:03:43.225Z,1.40
2023-07-16T15:06:10.788Z,1.30
2023-07-16T15:08:38.191Z,1.92
2023-07-16T15:11:05.501Z,1.50
2023-07-16T15:13:33.004Z,1.50
2023-07-16T15:16:00.687Z,1.40
2023-07-16T15:18:28.948Z,1.63
2023-07-16T15:21:01.855Z,1.88
2023-07-16T15:23:29.686Z,1.30
2023-07-16T15:26:05.184Z,1.20
2023-07-16T15:28:35.185Z,1.50
2023-07-16T15:31:03.183Z,1.63
2023-07-16T15:33:31.317Z,1.40
2023-07-16T15:35:59.058Z,1.70
2023-07-16T15:38:26.388Z,1.35
2023-07-16T15:40:54.174Z,1.30
2023-07-16T15:43:21.500Z,1.33
2023-07-16T15:45:49.029Z,1.30
2023-07-16T15:48:16.462Z,1.55
2023-07-16T15:50:43.884Z,1.30
2023-07-16T15:53:11.336Z,1.48
2023-07-16T15:55:38.988Z,1.83
2023-07-16T15:58:07.186Z,1.38
2023-07-16T16:00:34.565Z,1.40
2023-07-16T16:03:03.124Z,1.67
2023-07-16T16:05:31.643Z,1.13
2023-07-16T16:08:17.866Z,1.35
2023-07-16T16:10:48.731Z,1.40
2023-07-16T16:13:17.038Z,1.50
2023-07-16T16:15:44.809Z,1.65
2023-07-16T16:18:13.472Z,1.55
2023-07-16T16:20:41.833Z,1.50
2023-07-16T16:23:09.217Z,1.50
2023-07-16T16:25:38.504Z,1.30
2023-07-16T16:28:07.820Z,1.50
2023-07-16T16:30:36.937Z,1.73
2023-07-16T16:33:05.230Z,1.50
2023-07-16T16:35:40.891Z,2.08
2023-07-16T16:38:08.545Z,1.17
2023-07-16T16:40:36.347Z,1.42
2023-07-16T16:43:04.914Z,1.45
2023-07-16T16:45:33.401Z,1.50
2023-07-16T16:48:04.652Z,1.52
2023-07-16T16:50:32.495Z,1.35
2023-07-16T16:55:28.625Z,1.40
2023-07-16T16:57:56.548Z,1.40
2023-07-16T17:00:24.024Z,1.42
2023-07-16T17:02:51.733Z,1.55
2023-07-16T17:07:47.579Z,1.80
2023-07-16T17:10:14.909Z,1.30
2023-07-16T17:12:43.972Z,1.58
2023-07-16T17:15:14.193Z,1.80
2023-07-16T17:17:41.921Z,1.65
2023-07-16T17:20:11.175Z,1.60
2023-07-16T17:22:42.577Z,1.45
2023-07-16T17:25:10.683Z,1.67
2023-07-16T17:27:38.492Z,1.65
2023-07-16T17:32:34.804Z,1.50
2023-07-16T17:35:02.553Z,1.30
2023-07-16T17:37:31.822Z,1.48
2023-07-16T17:39:59.133Z,1.80
2023-07-16T17:42:26.530Z,1.30
2023-07-16T17:44:55.533Z,1.73
2023-07-16T17:47:23.809Z,1.38
2023-07-16T17:49:51.447Z,1.85
2023-07-16T17:52:18.819Z,1.42
2023-07-16T17:54:46.392Z,1.80
2023-07-16T17:57:14.783Z,1.73
2023-07-16T17:59:42.396Z,1.40
2023-07-16T18:02:13.079Z,1.60
2023-07-16T18:04:41.287Z,1.60
2023-07-16T18:07:08.861Z,1.60
2023-07-16T18:09:36.238Z,1.48
2023-07-16T18:12:03.812Z,1.90
2023-07-16T18:14:31.153Z,1.70
2023-07-16T18:17:00.661Z,1.25
2023-07-16T18:19:29.323Z,1.42
2023-07-16T18:22:04.104Z,1.42
2023-07-16T18:24:44.744Z,1.58
2023-07-16T18:27:12.781Z,1.52
2023-07-16T18:29:40.507Z,1.55
2023-07-16T18:32:08.881Z,1.92
2023-07-16T18:34:37.166Z,1.50
2023-07-16T18:37:09.195Z,1.60
2023-07-16T18:39:41.906Z,1.42
2023-07-16T18:42:15.900Z,1.25
2023-07-16T18:44:47.271Z,1.70
2023-07-16T18:47:14.982Z,1.67
2023-07-16T18:49:44.866Z,1.55
2023-07-16T18:52:15.479Z,1.38
2023-07-16T18:54:44.250Z,1.60
2023-07-16T18:57:12.677Z,1.30
2023-07-16T18:59:41.688Z,1.40
2023-07-16T19:02:09.809Z,1.80
2023-07-16T19:04:37.232Z,1.80
2023-07-16T19:07:08.253Z,1.90
2023-07-16T19:09:36.148Z,1.77
2023-07-16T19:12:05.848Z,1.60
2023-07-16T19:14:36.110Z,1.60
2023-07-16T19:17:04.627Z,1.83
2023-07-16T19:19:36.435Z,1.70
2023-07-16T19:22:05.276Z,1.90
2023-07-16T19:24:35.535Z,2.00
2023-07-16T19:27:04.150Z,1.50
2023-07-16T19:29:32.292Z,1.83
2023-07-16T19:32:00.831Z,1.40
2023-07-16T19:34:28.155Z,1.88
2023-07-16T19:36:55.450Z,1.48
2023-07-16T19:39:22.821Z,1.67
2023-07-16T19:41:50.252Z,2.22
2023-07-16T19:44:26.008Z,1.90
2023-07-16T19:46:54.162Z,2.05
2023-07-16T19:51:49.089Z,1.45
2023-07-16T19:54:16.396Z,2.10
2023-07-16T19:56:44.727Z,1.83
2023-07-16T19:59:12.073Z,1.50
2023-07-16T20:01:42.878Z,1.60
2023-07-16T20:04:11.540Z,1.60
2023-07-16T20:06:41.490Z,1.70
2023-07-16T20:09:16.272Z,1.70
2023-07-16T20:11:43.687Z,1.63
2023-07-16T20:14:11.012Z,1.58
2023-07-16T20:16:40.215Z,1.73
2023-07-16T20:19:07.616Z,1.67
2023-07-16T20:21:34.904Z,1.92
2023-07-16T20:24:04.102Z,1.48
2023-07-16T20:26:31.407Z,1.70
2023-07-16T20:28:59.779Z,1.63
2023-07-16T20:31:27.156Z,1.42
2023-07-16T20:33:54.518Z,1.95
2023-07-16T20:36:21.840Z,1.70
2023-07-16T20:38:49.308Z,2.08
2023-07-16T20:41:17.684Z,1.52
2023-07-16T20:43:45.349Z,1.75
2023-07-16T20:46:12.720Z,1.98
2023-07-16T20:48:43.588Z,1.80
2023-07-16T20:51:11.838Z,1.65
2023-07-16T20:53:41.114Z,2.65
2023-07-16T20:56:08.486Z,1.88
2023-07-16T20:58:35.940Z,1.63
2023-07-16T21:01:04.774Z,1.70
2023-07-16T21:03:33.845Z,1.92
2023-07-16T21:06:01.974Z,1.60
2023-07-16T21:08:29.949Z,1.98
2023-07-16T21:10:58.261Z,1.52
2023-07-16T21:13:27.218Z,1.67
2023-07-16T21:15:54.597Z,1.60
2023-07-16T21:18:23.068Z,2.03
2023-07-16T21:23:17.676Z,2.08
2023-07-16T21:25:45.815Z,1.65
2023-07-16T21:28:13.317Z,1.80
2023-07-16T21:30:42.628Z,1.60
2023-07-16T21:33:10.496Z,1.65
2023-07-16T21:35:37.886Z,1.95
2023-07-16T21:38:05.478Z,1.55
2023-07-16T21:40:35.801Z,1.60
2023-07-16T21:43:07.473Z,1.50
2023-07-16T21:45:36.126Z,1.77
2023-07-16T21:48:03.711Z,1.52
2023-07-16T21:50:31.235Z,1.30
2023-07-16T21:53:01.228Z,1.73
2023-07-16T21:55:28.774Z,1.52
2023-07-16T21:57:56.082Z,1.90
2023-07-16T22:00:23.813Z,1.50
2023-07-16T22:02:51.473Z,1.65
2023-07-16T22:05:20.065Z,1.60
2023-07-16T22:07:49.913Z,1.73
2023-07-16T22:10:17.473Z,1.70
2023-07-16T22:12:46.978Z,1.70
2023-07-16T22:15:14.942Z,1.73
2023-07-16T22:17:43.416Z,1.67
2023-07-16T22:20:13.942Z,1.58
2023-07-16T22:22:41.616Z,1.65
2023-07-16T22:25:09.478Z,1.92
2023-07-16T22:27:36.987Z,1.85
2023-07-16T22:30:05.407Z,1.75
2023-07-16T22:35:00.768Z,1.80
2023-07-16T22:37:28.405Z,1.85
2023-07-16T22:39:56.634Z,1.73
2023-07-16T22:42:25.931Z,1.73
2023-07-16T22:44:54.114Z,1.73
2023-07-16T22:47:21.660Z,1.55
2023-07-16T22:49:48.947Z,1.65
2023-07-16T22:52:16.331Z,1.80
2023-07-16T22:54:43.721Z,1.70
2023-07-16T22:57:11.186Z,1.90
2023-07-16T22:59:38.529Z,1.60
2023-07-16T23:02:05.962Z,1.70
2023-07-16T23:04:33.699Z,1.90
2023-07-16T23:07:02.985Z,1.88
2023-07-16T23:09:30.755Z,1.60
2023-07-16T23:11:58.548Z,1.50
2023-07-16T23:14:26.213Z,1.40
2023-07-16T23:16:53.616Z,1.67
2023-07-16T23:19:21.018Z,1.52
2023-07-16T23:21:48.378Z,1.70
2023-07-16T23:24:15.860Z,1.90
2023-07-16T23:26:43.203Z,1.65
2023-07-16T23:29:10.571Z,1.73
2023-07-16T23:31:37.912Z,1.90
2023-07-16T23:34:06.074Z,2.42
2023-07-16T23:36:33.647Z,1.77
2023-07-16T23:39:00.952Z,1.70
2023-07-16T23:41:28.530Z,1.80
2023-07-16T23:43:55.907Z,1.80
2023-07-16T23:46:24.015Z,1.80
2023-07-16T23:48:51.439Z,1.65
2023-07-16T23:51:19.070Z,1.90
2023-07-16T23:53:46.650Z,1.45
2023-07-16T23:56:14.020Z,1.23
2023-07-16T23:58:42.090Z,2.00
